createdAt,value
2024-03-16T00:00:10.888Z,54.22
2024-03-16T00:02:38.713Z,54.19
2024-03-16T00:05:07.250Z,54.24
2024-03-16T00:07:35.041Z,54.15
2024-03-16T00:10:03.223Z,54.19
2024-03-16T00:12:31.816Z,54.23
2024-03-16T00:14:59.682Z,54.00
2024-03-16T00:17:27.426Z,54.16
2024-03-16T00:19:56.220Z,54.37
2024-03-16T00:22:24.059Z,54.21
2024-03-16T00:24:51.870Z,54.52
2024-03-16T00:27:20.179Z,54.34
2024-03-16T00:29:48.602Z,54.40
2024-03-16T00:32:16.410Z,54.39
2024-03-16T00:34:44.175Z,54.41
2024-03-16T00:37:11.956Z,54.44
2024-03-16T00:39:39.858Z,54.31
2024-03-16T00:42:10.821Z,54.25
2024-03-16T00:44:38.739Z,54.31
2024-03-16T00:47:06.704Z,54.42
2024-03-16T00:49:35.894Z,54.63
2024-03-16T00:52:03.727Z,54.70
2024-03-16T00:54:31.515Z,54.42
2024-03-16T00:56:59.274Z,54.32
2024-03-16T00:59:29.281Z,54.56
2024-03-16T01:01:57.063Z,54.72
2024-03-16T01:04:25.552Z,54.33
2024-03-16T01:06:53.653Z,54.49
2024-03-16T01:09:21.486Z,54.63
2024-03-16T01:11:49.239Z,54.78
2024-03-16T01:14:17.926Z,54.51
2024-03-16T01:16:45.777Z,54.47
2024-03-16T01:19:13.750Z,54.59
2024-03-16T01:21:41.556Z,54.53
2024-03-16T01:24:09.285Z,54.70
2024-03-16T01:26:37.051Z,54.62
2024-03-16T01:29:05.311Z,54.55
2024-03-16T01:31:33.856Z,54.50
2024-03-16T01:34:01.674Z,54.61
2024-03-16T01:36:29.568Z,54.72
2024-03-16T01:38:57.337Z,54.74
2024-03-16T01:41:25.076Z,54.76
2024-03-16T01:43:52.815Z,54.80
2024-03-16T01:46:19.679Z,54.80
2024-03-16T01:48:53.011Z,54.72
2024-03-16T01:51:20.770Z,54.86
2024-03-16T01:53:49.230Z,54.77
2024-03-16T01:56:17.245Z,54.79
2024-03-16T01:58:46.556Z,54.88
2024-03-16T02:01:14.578Z,54.81
2024-03-16T02:03:44.143Z,54.95
2024-03-16T02:06:11.931Z,55.00
2024-03-16T02:08:39.118Z,54.84
2024-03-16T02:11:06.940Z,55.15
2024-03-16T02:13:34.764Z,55.23
2024-03-16T02:16:03.090Z,55.01
2024-03-16T02:18:30.971Z,54.76
2024-03-16T02:20:58.705Z,54.94
2024-03-16T02:23:26.472Z,55.05
2024-03-16T02:25:54.282Z,55.02
2024-03-16T02:28:22.019Z,54.86
2024-03-16T02:30:49.846Z,55.03
2024-03-16T02:33:17.714Z,54.85
2024-03-16T02:35:45.694Z,55.00
2024-03-16T02:38:13.447Z,54.92
2024-03-16T02:40:43.450Z,55.06
2024-03-16T02:43:11.560Z,55.23
2024-03-16T02:45:39.377Z,55.34
2024-03-16T02:48:07.592Z,55.09
2024-03-16T02:50:35.384Z,55.17
2024-03-16T02:53:03.239Z,55.39
2024-03-16T02:55:31.873Z,55.16
2024-03-16T02:57:59.790Z,55.35
2024-03-16T03:00:28.229Z,55.15
2024-03-16T03:02:56.129Z,55.15
2024-03-16T03:05:24.892Z,55.28
2024-03-16T03:07:53.930Z,55.28
2024-03-16T03:10:22.871Z,55.24
2024-03-16T03:12:50.764Z,55.28
2024-03-16T03:15:19.526Z,55.25
2024-03-16T03:17:47.282Z,55.25
2024-03-16T03:20:15.305Z,55.50
2024-03-16T03:22:43.070Z,55.38
2024-03-16T03:25:12.116Z,55.52
2024-03-16T03:27:40.270Z,55.52
2024-03-16T03:30:08.557Z,55.35
2024-03-16T03:32:36.406Z,55.62
2024-03-16T03:35:04.503Z,55.56
2024-03-16T03:37:32.369Z,55.35
2024-03-16T03:40:00.542Z,55.46
2024-03-16T03:42:30.828Z,55.47
2024-03-16T03:45:12.301Z,55.49
2024-03-16T03:47:51.416Z,55.59
2024-03-16T03:50:27.600Z,55.40
2024-03-16T03:52:56.311Z,55.63
2024-03-16T03:55:27.307Z,55.74
2024-03-16T03:57:56.091Z,55.79
2024-03-16T04:00:24.128Z,55.68
2024-03-16T04:02:51.921Z,55.75
2024-03-16T04:05:19.778Z,55.70
2024-03-16T04:07:47.546Z,55.49
2024-03-16T04:10:15.420Z,55.49
2024-03-16T04:12:43.322Z,55.93
2024-03-16T04:15:11.179Z,55.61
2024-03-16T04:17:39.057Z,55.86
2024-03-16T04:20:10.888Z,55.58
2024-03-16T04:22:38.788Z,55.71
2024-03-16T04:25:08.791Z,55.79
2024-03-16T04:27:36.699Z,55.81
2024-03-16T04:30:05.095Z,55.87
2024-03-16T04:32:32.955Z,55.94
2024-03-16T04:35:00.828Z,55.68
2024-03-16T04:37:28.679Z,55.63
2024-03-16T04:39:57.240Z,55.87
2024-03-16T04:42:25.159Z,55.87
2024-03-16T04:44:53.002Z,55.62
2024-03-16T04:47:20.774Z,55.92
2024-03-16T04:49:48.556Z,55.88
2024-03-16T04:52:16.851Z,55.82
2024-03-16T04:54:44.750Z,55.72
2024-03-16T04:57:13.434Z,56.08
2024-03-16T04:59:41.481Z,55.83
2024-03-16T05:02:09.373Z,56.09
2024-03-16T05:04:37.400Z,55.93
2024-03-16T05:07:05.269Z,56.11
2024-03-16T05:09:33.321Z,56.02
2024-03-16T05:12:01.541Z,55.88
2024-03-16T05:14:29.723Z,55.89
2024-03-16T05:16:57.472Z,55.88
2024-03-16T05:19:26.600Z,55.96
2024-03-16T05:21:54.481Z,56.19
2024-03-16T05:24:22.554Z,56.16
2024-03-16T05:26:50.393Z,56.12
2024-03-16T05:29:18.184Z,56.07
2024-03-16T05:31:46.416Z,56.16
2024-03-16T05:34:14.959Z,56.11
2024-03-16T05:36:43.253Z,56.11
2024-03-16T05:39:11.238Z,56.27
2024-03-16T05:41:39.740Z,56.31
2024-03-16T05:44:07.565Z,56.04
2024-03-16T05:46:35.327Z,56.26
2024-03-16T05:49:03.215Z,55.95
2024-03-16T05:51:31.458Z,56.14
2024-03-16T05:54:00.698Z,56.20
2024-03-16T05:56:28.556Z,56.27
2024-03-16T05:58:56.924Z,56.06
2024-03-16T06:01:26.159Z,56.00
2024-03-16T06:03:54.190Z,56.14
2024-03-16T06:06:22.391Z,55.96
2024-03-16T06:08:50.169Z,56.20
2024-03-16T06:11:18.023Z,55.86
2024-03-16T06:13:46.396Z,56.17
2024-03-16T06:16:14.581Z,56.17
2024-03-16T06:18:48.224Z,56.07
2024-03-16T06:21:16.167Z,55.79
2024-03-16T06:23:43.969Z,56.04
2024-03-16T06:26:18.118Z,56.08
2024-03-16T06:28:48.443Z,55.92
2024-03-16T06:31:19.670Z,55.92
2024-03-16T06:33:49.592Z,56.10
2024-03-16T06:36:17.437Z,55.90
2024-03-16T06:38:45.202Z,55.71
2024-03-16T06:41:12.987Z,55.97
2024-03-16T06:43:40.747Z,55.61
2024-03-16T06:46:10.046Z,55.58
2024-03-16T06:48:37.968Z,55.49
2024-03-16T06:51:06.049Z,55.46
2024-03-16T06:53:33.881Z,55.46
2024-03-16T06:56:02.497Z,55.56
2024-03-16T06:58:32.108Z,55.89
2024-03-16T07:01:00.775Z,55.73
2024-03-16T07:03:28.686Z,55.68
2024-03-16T07:05:56.496Z,55.75
2024-03-16T07:08:24.420Z,55.74
2024-03-16T07:10:52.461Z,55.84
2024-03-16T07:13:20.216Z,55.86
2024-03-16T07:15:48.109Z,55.71
2024-03-16T07:18:15.962Z,56.05
2024-03-16T07:20:43.842Z,55.89
2024-03-16T07:23:11.628Z,55.82
2024-03-16T07:25:39.435Z,56.00
2024-03-16T07:28:09.037Z,55.89
2024-03-16T07:30:37.209Z,56.05
2024-03-16T07:33:05.369Z,56.09
2024-03-16T07:35:33.276Z,56.05
2024-03-16T07:38:01.105Z,55.63
2024-03-16T07:40:33.059Z,55.84
2024-03-16T07:43:02.437Z,55.77
2024-03-16T07:45:30.410Z,55.78
2024-03-16T07:47:58.279Z,55.64
2024-03-16T07:50:26.074Z,55.81
2024-03-16T07:52:53.853Z,56.27
2024-03-16T07:55:21.770Z,55.95
2024-03-16T07:57:50.043Z,56.20
2024-03-16T08:00:17.933Z,56.25
2024-03-16T08:02:46.125Z,55.82
2024-03-16T08:05:14.078Z,55.80
2024-03-16T08:07:42.615Z,55.84
2024-03-16T08:10:11.298Z,55.78
2024-03-16T08:12:39.450Z,55.79
2024-03-16T08:15:06.998Z,55.36
2024-03-16T08:17:34.839Z,55.19
2024-03-16T08:20:03.637Z,55.03
2024-03-16T08:22:31.495Z,55.31
2024-03-16T08:24:59.410Z,55.37
2024-03-16T08:27:32.464Z,55.27
2024-03-16T08:30:02.646Z,55.22
2024-03-16T08:32:30.934Z,55.27
2024-03-16T08:34:58.743Z,55.59
2024-03-16T08:37:26.731Z,55.81
2024-03-16T08:39:54.712Z,56.01
2024-03-16T08:42:22.593Z,55.96
2024-03-16T08:44:50.413Z,55.89
2024-03-16T08:47:18.168Z,55.71
2024-03-16T08:49:45.937Z,55.45
2024-03-16T08:52:14.509Z,55.52
2024-03-16T08:54:42.435Z,55.32
2024-03-16T08:57:10.292Z,54.84
2024-03-16T08:59:39.481Z,54.37
2024-03-16T09:02:07.453Z,54.29
2024-03-16T09:04:35.666Z,54.14
2024-03-16T09:07:03.788Z,54.02
2024-03-16T09:09:31.760Z,53.56
2024-03-16T09:11:59.844Z,53.67
2024-03-16T09:14:27.636Z,53.26
2024-03-16T09:16:55.397Z,52.95
2024-03-16T09:19:23.334Z,52.64
2024-03-16T09:21:51.945Z,52.55
2024-03-16T09:24:19.750Z,52.38
2024-03-16T09:26:47.522Z,52.13
2024-03-16T09:29:15.278Z,52.27
2024-03-16T09:31:43.025Z,52.29
2024-03-16T09:34:12.068Z,52.09
2024-03-16T09:36:39.994Z,51.98
2024-03-16T09:39:11.561Z,51.64
2024-03-16T09:41:40.603Z,51.56
